sensor_id;sensor_type;location;lat;lon;timestamp;temperature;humidity
10903;DHT22;5504;47.312;11.060;2022-12-08T00:00:36;2.60;91.60
10903;DHT22;5504;47.312;11.060;2022-12-08T00:03:02;2.60;91.60
10903;DHT22;5504;47.312;11.060;2022-12-08T00:05:28;2.50;91.70
10903;DHT22;5504;47.312;11.060;2022-12-08T00:08:12;2.50;91.90
10903;DHT22;5504;47.312;11.060;2022-12-08T00:10:56;2.50;91.90
10903;DHT22;5504;47.312;11.060;2022-12-08T00:13:22;2.50;91.90
10903;DHT22;5504;47.312;11.060;2022-12-08T00:15:48;2.60;91.90
10903;DHT22;5504;47.312;11.060;2022-12-08T00:18:13;2.60;91.90
10903;DHT22;5504;47.312;11.060;2022-12-08T00:20:39;2.60;91.80
10903;DHT22;5504;47.312;11.060;2022-12-08T00:23:05;2.70;91.80
10903;DHT22;5504;47.312;11.060;2022-12-08T00:25:34;2.60;91.70
10903;DHT22;5504;47.312;11.060;2022-12-08T00:28:00;2.60;91.70
10903;DHT22;5504;47.312;11.060;2022-12-08T00:30:25;2.60;91.60
10903;DHT22;5504;47.312;11.060;2022-12-08T00:32:51;2.50;91.50
10903;DHT22;5504;47.312;11.060;2022-12-08T00:35:17;2.50;91.70
10903;DHT22;5504;47.312;11.060;2022-12-08T00:37:42;2.50;91.70
10903;DHT22;5504;47.312;11.060;2022-12-08T00:40:08;2.60;91.60
10903;DHT22;5504;47.312;11.060;2022-12-08T00:42:34;2.80;91.30
10903;DHT22;5504;47.312;11.060;2022-12-08T00:45:00;2.70;91.00
10903;DHT22;5504;47.312;11.060;2022-12-08T00:47:25;2.80;90.80
10903;DHT22;5504;47.312;11.060;2022-12-08T00:49:51;2.70;90.70
10903;DHT22;5504;47.312;11.060;2022-12-08T00:52:16;2.70;90.70
10903;DHT22;5504;47.312;11.060;2022-12-08T00:54:42;2.70;90.70
10903;DHT22;5504;47.312;11.060;2022-12-08T00:57:08;2.60;90.70
10903;DHT22;5504;47.312;11.060;2022-12-08T00:59:34;2.60;90.80
10903;DHT22;5504;47.312;11.060;2022-12-08T01:02:00;2.50;90.80
10903;DHT22;5504;47.312;11.060;2022-12-08T01:04:25;2.40;91.00
10903;DHT22;5504;47.312;11.060;2022-12-08T01:06:51;2.30;91.10
10903;DHT22;5504;47.312;11.060;2022-12-08T01:09:18;2.30;91.20
10903;DHT22;5504;47.312;11.060;2022-12-08T01:11:45;2.20;91.10
10903;DHT22;5504;47.312;11.060;2022-12-08T01:14:11;2.10;91.10
10903;DHT22;5504;47.312;11.060;2022-12-08T01:16:37;2.00;91.30
10903;DHT22;5504;47.312;11.060;2022-12-08T01:19:05;2.00;91.50
10903;DHT22;5504;47.312;11.060;2022-12-08T01:21:31;1.90;91.50
10903;DHT22;5504;47.312;11.060;2022-12-08T01:23:58;1.90;91.60
10903;DHT22;5504;47.312;11.060;2022-12-08T01:26:24;1.80;91.70
10903;DHT22;5504;47.312;11.060;2022-12-08T01:28:50;2.00;91.80
10903;DHT22;5504;47.312;11.060;2022-12-08T01:31:18;2.10;91.50
10903;DHT22;5504;47.312;11.060;2022-12-08T01:33:44;2.00;91.20
10903;DHT22;5504;47.312;11.060;2022-12-08T01:36:36;1.90;91.20
10903;DHT22;5504;47.312;11.060;2022-12-08T01:39:04;1.80;91.40
10903;DHT22;5504;47.312;11.060;2022-12-08T01:41:33;1.80;91.60
10903;DHT22;5504;47.312;11.060;2022-12-08T01:46:28;1.60;91.40
10903;DHT22;5504;47.312;11.060;2022-12-08T01:54:27;1.70;91.60
10903;DHT22;5504;47.312;11.060;2022-12-08T01:57:29;1.60;91.50
10903;DHT22;5504;47.312;11.060;2022-12-08T02:00:02;1.40;91.30
10903;DHT22;5504;47.312;11.060;2022-12-08T02:02:32;1.40;91.40
10903;DHT22;5504;47.312;11.060;2022-12-08T02:05:02;1.20;91.30
10903;DHT22;5504;47.312;11.060;2022-12-08T02:07:28;1.30;91.50
10903;DHT22;5504;47.312;11.060;2022-12-08T02:09:55;1.10;91.20
10903;DHT22;5504;47.312;11.060;2022-12-08T02:12:21;1.00;91.50
10903;DHT22;5504;47.312;11.060;2022-12-08T02:14:47;1.10;91.60
10903;DHT22;5504;47.312;11.060;2022-12-08T02:22:51;1.40;91.30
10903;DHT22;5504;47.312;11.060;2022-12-08T02:25:40;1.20;91.20
10903;DHT22;5504;47.312;11.060;2022-12-08T02:28:37;1.10;91.40
10903;DHT22;5504;47.312;11.060;2022-12-08T02:33:59;1.30;91.10
10903;DHT22;5504;47.312;11.060;2022-12-08T02:39:34;1.20;90.90
10903;DHT22;5504;47.312;11.060;2022-12-08T02:44:47;0.80;90.90
10903;DHT22;5504;47.312;11.060;2022-12-08T02:47:18;0.40;91.40
10903;DHT22;5504;47.312;11.060;2022-12-08T02:49:44;0.20;91.80
10903;DHT22;5504;47.312;11.060;2022-12-08T02:54:46;0.30;91.90
10903;DHT22;5504;47.312;11.060;2022-12-08T03:00:01;0.20;91.80
10903;DHT22;5504;47.312;11.060;2022-12-08T03:08:03;0.50;91.70
10903;DHT22;5504;47.312;11.060;2022-12-08T03:10:38;0.70;91.50
10903;DHT22;5504;47.312;11.060;2022-12-08T03:13:14;0.80;91.00
10903;DHT22;5504;47.312;11.060;2022-12-08T03:15:43;0.70;90.90
10903;DHT22;5504;47.312;11.060;2022-12-08T03:18:13;0.50;90.70
10903;DHT22;5504;47.312;11.060;2022-12-08T03:20:41;0.40;90.70
10903;DHT22;5504;47.312;11.060;2022-12-08T03:23:10;0.50;90.90
10903;DHT22;5504;47.312;11.060;2022-12-08T03:25:45;0.40;90.80
10903;DHT22;5504;47.312;11.060;2022-12-08T03:28:13;0.40;90.80
10903;DHT22;5504;47.312;11.060;2022-12-08T03:30:42;0.30;90.90
10903;DHT22;5504;47.312;11.060;2022-12-08T03:33:18;0.50;90.80
10903;DHT22;5504;47.312;11.060;2022-12-08T03:35:47;0.40;90.50
10903;DHT22;5504;47.312;11.060;2022-12-08T03:38:15;0.40;90.70
10903;DHT22;5504;47.312;11.060;2022-12-08T03:40:42;0.50;90.70
10903;DHT22;5504;47.312;11.060;2022-12-08T03:43:08;0.50;90.40
10903;DHT22;5504;47.312;11.060;2022-12-08T03:45:34;0.30;90.20
10903;DHT22;5504;47.312;11.060;2022-12-08T03:48:00;0.10;90.30
10903;DHT22;5504;47.312;11.060;2022-12-08T03:50:26;0.10;90.90
10903;DHT22;5504;47.312;11.060;2022-12-08T03:52:51;0.00;90.60
10903;DHT22;5504;47.312;11.060;2022-12-08T03:55:17;0.00;90.90
10903;DHT22;5504;47.312;11.060;2022-12-08T03:57:43;-0.10;90.80
10903;DHT22;5504;47.312;11.060;2022-12-08T04:00:14;-0.10;91.00
10903;DHT22;5504;47.312;11.060;2022-12-08T04:02:42;0.00;90.90
10903;DHT22;5504;47.312;11.060;2022-12-08T04:05:08;-0.10;90.80
10903;DHT22;5504;47.312;11.060;2022-12-08T04:07:33;-0.10;90.70
10903;DHT22;5504;47.312;11.060;2022-12-08T04:09:59;-0.20;90.60
10903;DHT22;5504;47.312;11.060;2022-12-08T04:12:25;-0.10;90.90
10903;DHT22;5504;47.312;11.060;2022-12-08T04:14:50;0.00;90.70
10903;DHT22;5504;47.312;11.060;2022-12-08T04:17:16;0.00;90.60
10903;DHT22;5504;47.312;11.060;2022-12-08T04:19:42;-0.10;90.50
10903;DHT22;5504;47.312;11.060;2022-12-08T04:22:07;-0.10;90.50
10903;DHT22;5504;47.312;11.060;2022-12-08T04:24:33;-0.20;90.40
10903;DHT22;5504;47.312;11.060;2022-12-08T04:26:59;-0.30;90.40
10903;DHT22;5504;47.312;11.060;2022-12-08T04:29:24;-0.30;90.70
10903;DHT22;5504;47.312;11.060;2022-12-08T04:31:50;-0.30;90.50
10903;DHT22;5504;47.312;11.060;2022-12-08T04:34:16;-0.20;90.60
10903;DHT22;5504;47.312;11.060;2022-12-08T04:36:41;-0.30;90.20
10903;DHT22;5504;47.312;11.060;2022-12-08T04:39:07;-0.20;90.40
10903;DHT22;5504;47.312;11.060;2022-12-08T04:41:32;-0.10;90.10
10903;DHT22;5504;47.312;11.060;2022-12-08T04:43:58;-0.10;90.00
10903;DHT22;5504;47.312;11.060;2022-12-08T04:46:24;-0.20;89.80
10903;DHT22;5504;47.312;11.060;2022-12-08T04:48:49;-0.20;89.80
10903;DHT22;5504;47.312;11.060;2022-12-08T04:51:17;-0.30;89.70
10903;DHT22;5504;47.312;11.060;2022-12-08T04:53:44;-0.50;89.80
10903;DHT22;5504;47.312;11.060;2022-12-08T04:56:17;-0.60;90.20
10903;DHT22;5504;47.312;11.060;2022-12-08T04:58:43;-0.50;90.20
10903;DHT22;5504;47.312;11.060;2022-12-08T05:01:10;-0.40;89.90
10903;DHT22;5504;47.312;11.060;2022-12-08T05:03:35;-0.60;89.50
10903;DHT22;5504;47.312;11.060;2022-12-08T05:06:01;-0.70;89.80
10903;DHT22;5504;47.312;11.060;2022-12-08T05:08:28;-1.00;90.00
10903;DHT22;5504;47.312;11.060;2022-12-08T05:11:01;-1.00;90.30
10903;DHT22;5504;47.312;11.060;2022-12-08T05:13:26;-1.10;90.60
10903;DHT22;5504;47.312;11.060;2022-12-08T05:15:52;-1.00;90.90
10903;DHT22;5504;47.312;11.060;2022-12-08T05:18:17;-0.70;90.60
10903;DHT22;5504;47.312;11.060;2022-12-08T05:20:43;-0.70;90.40
10903;DHT22;5504;47.312;11.060;2022-12-08T05:23:09;-0.60;90.10
10903;DHT22;5504;47.312;11.060;2022-12-08T05:25:35;-0.50;89.90
10903;DHT22;5504;47.312;11.060;2022-12-08T05:28:00;-0.70;89.30
10903;DHT22;5504;47.312;11.060;2022-12-08T05:30:26;-0.80;89.70
10903;DHT22;5504;47.312;11.060;2022-12-08T05:32:53;-0.70;90.10
10903;DHT22;5504;47.312;11.060;2022-12-08T05:35:19;-0.70;89.90
10903;DHT22;5504;47.312;11.060;2022-12-08T05:37:45;-0.70;89.50
10903;DHT22;5504;47.312;11.060;2022-12-08T05:40:10;-0.90;89.10
10903;DHT22;5504;47.312;11.060;2022-12-08T05:42:36;-1.10;89.40
10903;DHT22;5504;47.312;11.060;2022-12-08T05:45:02;-1.30;90.10
10903;DHT22;5504;47.312;11.060;2022-12-08T05:47:28;-1.20;90.40
10903;DHT22;5504;47.312;11.060;2022-12-08T05:49:54;-1.10;90.20
10903;DHT22;5504;47.312;11.060;2022-12-08T05:52:20;-1.20;90.30
10903;DHT22;5504;47.312;11.060;2022-12-08T05:54:45;-1.20;90.10
10903;DHT22;5504;47.312;11.060;2022-12-08T05:57:11;-1.30;90.20
10903;DHT22;5504;47.312;11.060;2022-12-08T05:59:37;-1.40;90.30
10903;DHT22;5504;47.312;11.060;2022-12-08T06:02:03;-1.50;90.60
10903;DHT22;5504;47.312;11.060;2022-12-08T06:04:29;-1.30;90.50
10903;DHT22;5504;47.312;11.060;2022-12-08T06:06:54;-1.40;90.30
10903;DHT22;5504;47.312;11.060;2022-12-08T06:09:20;-1.30;90.40
10903;DHT22;5504;47.312;11.060;2022-12-08T06:11:46;-1.40;90.10
10903;DHT22;5504;47.312;11.060;2022-12-08T06:14:12;-1.30;90.50
10903;DHT22;5504;47.312;11.060;2022-12-08T06:16:37;-1.20;90.20
10903;DHT22;5504;47.312;11.060;2022-12-08T06:19:03;-1.20;89.70
10903;DHT22;5504;47.312;11.060;2022-12-08T06:21:29;-1.30;89.30
10903;DHT22;5504;47.312;11.060;2022-12-08T06:23:55;-1.30;89.70
10903;DHT22;5504;47.312;11.060;2022-12-08T06:26:21;-1.20;89.80
10903;DHT22;5504;47.312;11.060;2022-12-08T06:28:47;-1.10;89.50
10903;DHT22;5504;47.312;11.060;2022-12-08T06:31:16;-1.00;89.00
10903;DHT22;5504;47.312;11.060;2022-12-08T06:33:42;-1.00;88.60
10903;DHT22;5504;47.312;11.060;2022-12-08T06:36:10;-1.30;88.40
10903;DHT22;5504;47.312;11.060;2022-12-08T06:38:37;-1.40;89.30
10903;DHT22;5504;47.312;11.060;2022-12-08T06:41:03;-1.40;89.60
10903;DHT22;5504;47.312;11.060;2022-12-08T06:43:30;-1.30;89.70
10903;DHT22;5504;47.312;11.060;2022-12-08T06:45:58;-1.20;89.40
10903;DHT22;5504;47.312;11.060;2022-12-08T06:48:24;-1.40;88.70
10903;DHT22;5504;47.312;11.060;2022-12-08T06:50:49;-1.50;89.20
10903;DHT22;5504;47.312;11.060;2022-12-08T06:53:15;-1.50;89.90
10903;DHT22;5504;47.312;11.060;2022-12-08T06:55:43;-1.30;89.40
10903;DHT22;5504;47.312;11.060;2022-12-08T06:58:09;-1.30;88.70
10903;DHT22;5504;47.312;11.060;2022-12-08T07:00:35;-1.30;88.20
10903;DHT22;5504;47.312;11.060;2022-12-08T07:03:00;-1.50;88.00
10903;DHT22;5504;47.312;11.060;2022-12-08T07:05:26;-1.60;88.50
10903;DHT22;5504;47.312;11.060;2022-12-08T07:07:51;-1.50;89.10
10903;DHT22;5504;47.312;11.060;2022-12-08T07:10:17;-1.50;88.90
10903;DHT22;5504;47.312;11.060;2022-12-08T07:12:43;-1.60;88.60
10903;DHT22;5504;47.312;11.060;2022-12-08T07:15:09;-1.60;89.10
10903;DHT22;5504;47.312;11.060;2022-12-08T07:17:35;-1.60;88.80
10903;DHT22;5504;47.312;11.060;2022-12-08T07:20:01;-1.60;88.60
10903;DHT22;5504;47.312;11.060;2022-12-08T07:22:26;-1.70;88.50
10903;DHT22;5504;47.312;11.060;2022-12-08T07:24:52;-1.90;89.10
10903;DHT22;5504;47.312;11.060;2022-12-08T07:27:17;-1.80;90.00
10903;DHT22;5504;47.312;11.060;2022-12-08T07:29:43;-1.80;90.00
10903;DHT22;5504;47.312;11.060;2022-12-08T07:32:09;-1.60;90.00
10903;DHT22;5504;47.312;11.060;2022-12-08T07:34:34;-1.50;89.60
10903;DHT22;5504;47.312;11.060;2022-12-08T07:37:01;-1.50;89.00
10903;DHT22;5504;47.312;11.060;2022-12-08T07:39:26;-1.50;88.60
10903;DHT22;5504;47.312;11.060;2022-12-08T07:41:52;-1.60;88.50
10903;DHT22;5504;47.312;11.060;2022-12-08T07:44:18;-1.70;89.20
10903;DHT22;5504;47.312;11.060;2022-12-08T07:46:43;-1.60;89.70
10903;DHT22;5504;47.312;11.060;2022-12-08T07:49:10;-1.50;89.80
10903;DHT22;5504;47.312;11.060;2022-12-08T07:51:35;-1.40;89.40
10903;DHT22;5504;47.312;11.060;2022-12-08T07:54:01;-1.50;88.60
10903;DHT22;5504;47.312;11.060;2022-12-08T07:56:27;-1.60;88.60
10903;DHT22;5504;47.312;11.060;2022-12-08T07:58:52;-1.60;89.20
10903;DHT22;5504;47.312;11.060;2022-12-08T08:01:27;-1.50;89.30
10903;DHT22;5504;47.312;11.060;2022-12-08T08:03:54;-1.30;89.10
10903;DHT22;5504;47.312;11.060;2022-12-08T08:06:21;-1.30;88.10
10903;DHT22;5504;47.312;11.060;2022-12-08T08:08:47;-1.30;87.80
10903;DHT22;5504;47.312;11.060;2022-12-08T08:11:13;-1.40;88.00
10903;DHT22;5504;47.312;11.060;2022-12-08T08:13:39;-1.40;88.30
10903;DHT22;5504;47.312;11.060;2022-12-08T08:16:09;-1.30;88.50
10903;DHT22;5504;47.312;11.060;2022-12-08T08:18:35;-1.50;88.20
10903;DHT22;5504;47.312;11.060;2022-12-08T08:21:02;-1.40;89.70
10903;DHT22;5504;47.312;11.060;2022-12-08T08:23:28;-0.80;90.60
10903;DHT22;5504;47.312;11.060;2022-12-08T08:25:57;-0.60;89.50
10903;DHT22;5504;47.312;11.060;2022-12-08T08:28:22;0.00;88.90
10903;DHT22;5504;47.312;11.060;2022-12-08T08:30:48;0.50;88.00
10903;DHT22;5504;47.312;11.060;2022-12-08T08:33:14;1.00;87.10
10903;DHT22;5504;47.312;11.060;2022-12-08T08:35:39;1.20;85.10
10903;DHT22;5504;47.312;11.060;2022-12-08T08:38:06;1.60;84.50
10903;DHT22;5504;47.312;11.060;2022-12-08T08:40:32;2.10;82.80
10903;DHT22;5504;47.312;11.060;2022-12-08T08:43:00;2.60;82.40
10903;DHT22;5504;47.312;11.060;2022-12-08T08:45:26;3.10;81.30
10903;DHT22;5504;47.312;11.060;2022-12-08T08:47:52;3.60;79.80
10903;DHT22;5504;47.312;11.060;2022-12-08T08:50:17;4.10;78.50
10903;DHT22;5504;47.312;11.060;2022-12-08T08:52:43;4.50;77.10
10903;DHT22;5504;47.312;11.060;2022-12-08T08:55:09;4.90;75.50
10903;DHT22;5504;47.312;11.060;2022-12-08T08:57:34;5.20;74.10
10903;DHT22;5504;47.312;11.060;2022-12-08T09:00:00;5.30;71.70
10903;DHT22;5504;47.312;11.060;2022-12-08T09:02:26;5.30;71.50
10903;DHT22;5504;47.312;11.060;2022-12-08T09:04:52;5.30;71.50
10903;DHT22;5504;47.312;11.060;2022-12-08T09:07:17;5.60;71.20
10903;DHT22;5504;47.312;11.060;2022-12-08T09:09:43;5.80;70.40
10903;DHT22;5504;47.312;11.060;2022-12-08T09:12:09;5.60;65.70
10903;DHT22;5504;47.312;11.060;2022-12-08T09:14:35;5.00;68.40
10903;DHT22;5504;47.312;11.060;2022-12-08T09:17:00;4.40;68.20
10903;DHT22;5504;47.312;11.060;2022-12-08T09:19:26;5.00;70.70
10903;DHT22;5504;47.312;11.060;2022-12-08T09:21:52;5.50;70.40
10903;DHT22;5504;47.312;11.060;2022-12-08T09:24:17;5.90;69.70
10903;DHT22;5504;47.312;11.060;2022-12-08T09:26:44;6.40;67.50
10903;DHT22;5504;47.312;11.060;2022-12-08T09:29:10;6.80;65.40
10903;DHT22;5504;47.312;11.060;2022-12-08T09:31:36;6.30;62.20
10903;DHT22;5504;47.312;11.060;2022-12-08T09:34:03;4.30;65.00
10903;DHT22;5504;47.312;11.060;2022-12-08T09:36:29;4.50;67.60
10903;DHT22;5504;47.312;11.060;2022-12-08T09:38:55;4.90;67.30
10903;DHT22;5504;47.312;11.060;2022-12-08T09:41:34;5.30;66.70
10903;DHT22;5504;47.312;11.060;2022-12-08T09:46:38;4.70;66.70
10903;DHT22;5504;47.312;11.060;2022-12-08T09:49:12;5.50;66.60
10903;DHT22;5504;47.312;11.060;2022-12-08T09:51:39;6.20;65.90
10903;DHT22;5504;47.312;11.060;2022-12-08T09:54:10;6.20;61.80
10903;DHT22;5504;47.312;11.060;2022-12-08T09:56:40;6.10;62.60
10903;DHT22;5504;47.312;11.060;2022-12-08T10:01:47;5.10;63.10
10903;DHT22;5504;47.312;11.060;2022-12-08T10:06:44;5.20;63.60
10903;DHT22;5504;47.312;11.060;2022-12-08T10:09:34;4.70;65.90
10903;DHT22;5504;47.312;11.060;2022-12-08T10:18:10;3.80;66.50
10903;DHT22;5504;47.312;11.060;2022-12-08T10:20:39;5.00;66.00
10903;DHT22;5504;47.312;11.060;2022-12-08T10:25:42;6.00;63.50
10903;DHT22;5504;47.312;11.060;2022-12-08T10:28:08;6.70;61.50
10903;DHT22;5504;47.312;11.060;2022-12-08T10:30:34;6.80;61.00
10903;DHT22;5504;47.312;11.060;2022-12-08T10:33:00;7.40;58.20
10903;DHT22;5504;47.312;11.060;2022-12-08T10:36:02;8.00;57.90
10903;DHT22;5504;47.312;11.060;2022-12-08T10:38:29;8.40;56.40
10903;DHT22;5504;47.312;11.060;2022-12-08T10:43:48;8.70;54.70
10903;DHT22;5504;47.312;11.060;2022-12-08T10:46:37;8.50;55.40
10903;DHT22;5504;47.312;11.060;2022-12-08T10:54:00;6.50;58.20
10903;DHT22;5504;47.312;11.060;2022-12-08T10:56:29;7.00;59.90
10903;DHT22;5504;47.312;11.060;2022-12-08T11:01:37;8.20;57.60
10903;DHT22;5504;47.312;11.060;2022-12-08T11:04:11;7.60;55.70
10903;DHT22;5504;47.312;11.060;2022-12-08T11:06:38;7.20;57.00
10903;DHT22;5504;47.312;11.060;2022-12-08T11:11:59;7.80;55.70
10903;DHT22;5504;47.312;11.060;2022-12-08T11:14:59;8.50;55.70
10903;DHT22;5504;47.312;11.060;2022-12-08T11:17:24;8.20;55.10
10903;DHT22;5504;47.312;11.060;2022-12-08T11:22:39;7.30;55.50
10903;DHT22;5504;47.312;11.060;2022-12-08T11:25:08;7.40;56.50
10903;DHT22;5504;47.312;11.060;2022-12-08T11:27:38;6.80;55.80
10903;DHT22;5504;47.312;11.060;2022-12-08T11:30:26;7.40;57.10
10903;DHT22;5504;47.312;11.060;2022-12-08T11:33:02;7.10;56.30
10903;DHT22;5504;47.312;11.060;2022-12-08T11:35:40;6.70;57.40
10903;DHT22;5504;47.312;11.060;2022-12-08T11:38:14;6.30;57.70
10903;DHT22;5504;47.312;11.060;2022-12-08T11:40:42;7.00;58.40
10903;DHT22;5504;47.312;11.060;2022-12-08T11:43:20;7.70;57.20
10903;DHT22;5504;47.312;11.060;2022-12-08T11:45:56;7.20;55.80
10903;DHT22;5504;47.312;11.060;2022-12-08T11:51:04;7.70;56.20
10903;DHT22;5504;47.312;11.060;2022-12-08T11:56:17;7.50;56.20
10903;DHT22;5504;47.312;11.060;2022-12-08T11:58:48;8.10;55.00
10903;DHT22;5504;47.312;11.060;2022-12-08T12:01:23;7.90;54.60
10903;DHT22;5504;47.312;11.060;2022-12-08T12:17:59;9.40;53.10
10903;DHT22;5504;47.312;11.060;2022-12-08T12:20:32;8.70;50.50
10903;DHT22;5504;47.312;11.060;2022-12-08T12:23:13;9.20;52.00
10903;DHT22;5504;47.312;11.060;2022-12-08T12:25:57;8.80;51.20
10903;DHT22;5504;47.312;11.060;2022-12-08T12:28:28;8.30;52.80
10903;DHT22;5504;47.312;11.060;2022-12-08T12:31:07;8.80;52.50
10903;DHT22;5504;47.312;11.060;2022-12-08T12:33:35;9.20;52.00
10903;DHT22;5504;47.312;11.060;2022-12-08T12:36:06;9.50;50.90
10903;DHT22;5504;47.312;11.060;2022-12-08T12:38:35;9.60;50.60
10903;DHT22;5504;47.312;11.060;2022-12-08T12:41:35;9.80;50.00
10903;DHT22;5504;47.312;11.060;2022-12-08T12:57:24;10.00;49.80
10903;DHT22;5504;47.312;11.060;2022-12-08T13:02:30;10.00;50.70
10903;DHT22;5504;47.312;11.060;2022-12-08T13:05:01;10.10;51.30
10903;DHT22;5504;47.312;11.060;2022-12-08T13:07:32;10.10;50.40
10903;DHT22;5504;47.312;11.060;2022-12-08T13:26:25;8.30;49.70
10903;DHT22;5504;47.312;11.060;2022-12-08T13:34:38;5.30;54.10
10903;DHT22;5504;47.312;11.060;2022-12-08T13:39:42;5.30;53.70
10903;DHT22;5504;47.312;11.060;2022-12-08T13:44:48;6.40;58.30
10903;DHT22;5504;47.312;11.060;2022-12-08T13:47:18;7.10;56.60
10903;DHT22;5504;47.312;11.060;2022-12-08T13:49:54;7.50;56.40
10903;DHT22;5504;47.312;11.060;2022-12-08T13:55:19;8.10;55.70
10903;DHT22;5504;47.312;11.060;2022-12-08T13:57:48;8.20;52.20
10903;DHT22;5504;47.312;11.060;2022-12-08T14:00:20;8.20;53.30
10903;DHT22;5504;47.312;11.060;2022-12-08T14:02:47;8.40;54.60
10903;DHT22;5504;47.312;11.060;2022-12-08T14:05:15;8.50;55.10
10903;DHT22;5504;47.312;11.060;2022-12-08T14:07:41;8.60;55.70
10903;DHT22;5504;47.312;11.060;2022-12-08T14:10:26;8.80;55.30
10903;DHT22;5504;47.312;11.060;2022-12-08T14:12:59;8.70;55.10
10903;DHT22;5504;47.312;11.060;2022-12-08T14:15:26;8.40;55.10
10903;DHT22;5504;47.312;11.060;2022-12-08T14:17:54;8.10;55.10
10903;DHT22;5504;47.312;11.060;2022-12-08T14:20:24;7.10;54.20
10903;DHT22;5504;47.312;11.060;2022-12-08T14:22:51;6.90;55.40
10903;DHT22;5504;47.312;11.060;2022-12-08T14:25:18;6.70;57.20
10903;DHT22;5504;47.312;11.060;2022-12-08T14:27:45;6.20;57.90
10903;DHT22;5504;47.312;11.060;2022-12-08T14:30:24;5.90;58.70
10903;DHT22;5504;47.312;11.060;2022-12-08T14:32:53;5.50;60.20
10903;DHT22;5504;47.312;11.060;2022-12-08T14:37:57;5.10;62.30
10903;DHT22;5504;47.312;11.060;2022-12-08T14:40:58;4.80;63.30
10903;DHT22;5504;47.312;11.060;2022-12-08T14:43:27;4.80;63.20
10903;DHT22;5504;47.312;11.060;2022-12-08T14:46:00;4.50;63.60
10903;DHT22;5504;47.312;11.060;2022-12-08T14:54:07;3.30;67.90
10903;DHT22;5504;47.312;11.060;2022-12-08T14:56:54;3.10;69.00
10903;DHT22;5504;47.312;11.060;2022-12-08T14:59:33;3.20;69.10
10903;DHT22;5504;47.312;11.060;2022-12-08T15:05:02;2.70;70.40
10903;DHT22;5504;47.312;11.060;2022-12-08T15:13:05;2.20;71.10
10903;DHT22;5504;47.312;11.060;2022-12-08T15:15:46;2.00;72.50
10903;DHT22;5504;47.312;11.060;2022-12-08T15:18:17;2.10;73.10
10903;DHT22;5504;47.312;11.060;2022-12-08T15:20:55;2.00;72.80
10903;DHT22;5504;47.312;11.060;2022-12-08T15:24:10;2.10;72.40
10903;DHT22;5504;47.312;11.060;2022-12-08T15:26:25;2.10;72.30
10903;DHT22;5504;47.312;11.060;2022-12-08T15:28:52;2.20;72.00
10903;DHT22;5504;47.312;11.060;2022-12-08T15:31:18;1.80;73.50
10903;DHT22;5504;47.312;11.060;2022-12-08T15:33:43;1.60;74.00
10903;DHT22;5504;47.312;11.060;2022-12-08T15:36:09;1.80;74.30
10903;DHT22;5504;47.312;11.060;2022-12-08T15:38:36;1.90;74.10
10903;DHT22;5504;47.312;11.060;2022-12-08T15:41:03;2.00;72.50
10903;DHT22;5504;47.312;11.060;2022-12-08T15:43:30;2.00;72.80
10903;DHT22;5504;47.312;11.060;2022-12-08T15:45:56;2.00;72.70
10903;DHT22;5504;47.312;11.060;2022-12-08T15:48:24;2.00;72.80
10903;DHT22;5504;47.312;11.060;2022-12-08T15:50:52;2.10;72.60
10903;DHT22;5504;47.312;11.060;2022-12-08T15:53:18;2.10;72.00
10903;DHT22;5504;47.312;11.060;2022-12-08T15:55:44;2.10;71.60
10903;DHT22;5504;47.312;11.060;2022-12-08T15:58:18;2.00;72.10
10903;DHT22;5504;47.312;11.060;2022-12-08T16:00:44;1.90;71.90
10903;DHT22;5504;47.312;11.060;2022-12-08T16:03:28;1.70;72.90
10903;DHT22;5504;47.312;11.060;2022-12-08T16:05:58;1.30;74.10
10903;DHT22;5504;47.312;11.060;2022-12-08T16:08:28;1.20;75.30
10903;DHT22;5504;47.312;11.060;2022-12-08T16:10:55;1.10;76.00
10903;DHT22;5504;47.312;11.060;2022-12-08T16:13:41;1.10;76.70
10903;DHT22;5504;47.312;11.060;2022-12-08T16:16:17;1.30;76.10
10903;DHT22;5504;47.312;11.060;2022-12-08T16:18:47;1.40;75.70
10903;DHT22;5504;47.312;11.060;2022-12-08T16:21:13;1.30;76.00
10903;DHT22;5504;47.312;11.060;2022-12-08T16:23:39;1.00;75.80
10903;DHT22;5504;47.312;11.060;2022-12-08T16:26:05;0.70;77.60
10903;DHT22;5504;47.312;11.060;2022-12-08T16:28:34;0.80;78.60
10903;DHT22;5504;47.312;11.060;2022-12-08T16:31:00;0.80;78.10
10903;DHT22;5504;47.312;11.060;2022-12-08T16:33:26;0.80;77.80
10903;DHT22;5504;47.312;11.060;2022-12-08T16:35:51;0.70;78.40
10903;DHT22;5504;47.312;11.060;2022-12-08T16:38:17;0.70;78.90
10903;DHT22;5504;47.312;11.060;2022-12-08T16:40:44;0.90;78.10
10903;DHT22;5504;47.312;11.060;2022-12-08T16:43:28;0.90;77.30
10903;DHT22;5504;47.312;11.060;2022-12-08T16:45:55;1.10;76.90
10903;DHT22;5504;47.312;11.060;2022-12-08T16:48:21;1.10;76.50
10903;DHT22;5504;47.312;11.060;2022-12-08T16:50:47;1.00;76.30
10903;DHT22;5504;47.312;11.060;2022-12-08T16:53:13;1.10;75.80
10903;DHT22;5504;47.312;11.060;2022-12-08T16:55:39;0.70;76.50
10903;DHT22;5504;47.312;11.060;2022-12-08T16:58:05;0.40;78.20
10903;DHT22;5504;47.312;11.060;2022-12-08T17:00:32;0.30;78.80
10903;DHT22;5504;47.312;11.060;2022-12-08T17:03:02;0.40;78.70
10903;DHT22;5504;47.312;11.060;2022-12-08T17:05:28;0.40;78.70
10903;DHT22;5504;47.312;11.060;2022-12-08T17:07:54;0.20;78.90
10903;DHT22;5504;47.312;11.060;2022-12-08T17:10:22;0.10;79.70
10903;DHT22;5504;47.312;11.060;2022-12-08T17:12:50;-0.10;81.00
10903;DHT22;5504;47.312;11.060;2022-12-08T17:15:17;-0.10;81.50
10903;DHT22;5504;47.312;11.060;2022-12-08T17:17:44;0.00;80.60
10903;DHT22;5504;47.312;11.060;2022-12-08T17:20:28;-0.10;80.40
10903;DHT22;5504;47.312;11.060;2022-12-08T17:22:57;0.00;81.00
10903;DHT22;5504;47.312;11.060;2022-12-08T17:25:24;0.20;81.30
10903;DHT22;5504;47.312;11.060;2022-12-08T17:27:49;0.30;80.40
10903;DHT22;5504;47.312;11.060;2022-12-08T17:30:15;0.40;80.20
10903;DHT22;5504;47.312;11.060;2022-12-08T17:32:42;0.50;79.50
10903;DHT22;5504;47.312;11.060;2022-12-08T17:35:08;0.30;79.50
10903;DHT22;5504;47.312;11.060;2022-12-08T17:37:34;0.20;80.20
10903;DHT22;5504;47.312;11.060;2022-12-08T17:40:00;0.20;80.40
10903;DHT22;5504;47.312;11.060;2022-12-08T17:42:26;0.30;79.50
10903;DHT22;5504;47.312;11.060;2022-12-08T17:44:53;0.20;79.50
10903;DHT22;5504;47.312;11.060;2022-12-08T17:47:18;0.00;79.60
10903;DHT22;5504;47.312;11.060;2022-12-08T17:49:44;-0.20;81.00
10903;DHT22;5504;47.312;11.060;2022-12-08T17:52:10;-0.10;81.30
10903;DHT22;5504;47.312;11.060;2022-12-08T17:54:37;0.00;81.00
10903;DHT22;5504;47.312;11.060;2022-12-08T17:57:03;0.00;80.80
10903;DHT22;5504;47.312;11.060;2022-12-08T17:59:28;-0.10;80.80
10903;DHT22;5504;47.312;11.060;2022-12-08T18:01:56;-0.20;81.50
10903;DHT22;5504;47.312;11.060;2022-12-08T18:04:23;-0.50;81.90
10903;DHT22;5504;47.312;11.060;2022-12-08T18:06:49;-0.60;83.00
10903;DHT22;5504;47.312;11.060;2022-12-08T18:09:15;-0.60;83.10
10903;DHT22;5504;47.312;11.060;2022-12-08T18:11:41;-0.40;82.70
10903;DHT22;5504;47.312;11.060;2022-12-08T18:14:07;-0.30;81.80
10903;DHT22;5504;47.312;11.060;2022-12-08T18:16:38;-0.50;82.40